KDYS/DYS METAR and TAF weather

Enter ICAO airport designator
Station Type Date Time Source
KDYS METAR 2021/05/14 13:56 UTC NOAA

KDYS 141356Z AUTO 15009KT 10SM CLR 18/13 A3021 RMK AO2 SLP204 T01820128


Station Type Date Time Source
KDYS Decoded METAR 2021/05/14 13:56 UTC NOAA

Abilene, Dyess Air Force Base, TX, United States (KDYS) 32-25-12N 099-51-25W
May 14, 2021 - 09:56 AM EDT / 2021.05.14 1356 UTC
Wind: from the SSE (150 degrees) at 10 MPH (9 KT):0
Visibility: 10 mile(s):0
Sky conditions: clear
Temperature: 64.8 F (18.2 C)
Dew Point: 55.0 F (12.8 C)
Relative Humidity: 70%
Pressure (altimeter): 30.21 in. Hg (1023 hPa)
ob: KDYS 141356Z AUTO 15009KT 10SM CLR 18/13 A3021 RMK AO2 SLP204 T01820128
cycle: 14

Station Type Date Time Source
KDYS TAF 2021/05/14 12:13 UTC NOAA

TAF KDYS 141200Z 1412/1518 16009KT 9999 SCT035 QNH3020INS
BECMG 1415/1416 16010G15KT 9999 FEW040 QNH3018INS
BECMG 1417/1418 16012G18KT 9999 SKC QNH2998INS
BECMG 1510/1511 17010G15KT 9999 BKN020 QNH2998INS
BECMG 1516/1517 19015G25KT 9999 BKN030 QNH2997INS TX28/1420Z TN13/1412Z

Example: see airport list